sensor_id;sensor_type;location;lat;lon;timestamp;pressure;altitude;pressure_sealevel;temperature;humidity
76590;BME280;65471;55.908;37.880;2023-09-08T00:02:01;100129.97;;;11.66;74.76
76590;BME280;65471;55.908;37.880;2023-09-08T00:04:27;100129.13;;;11.65;74.63
76590;BME280;65471;55.908;37.880;2023-09-08T00:06:54;100127.47;;;11.64;74.92
76590;BME280;65471;55.908;37.880;2023-09-08T00:09:21;100132.28;;;11.62;74.79
76590;BME280;65471;55.908;37.880;2023-09-08T00:11:48;100125.22;;;11.61;74.68
76590;BME280;65471;55.908;37.880;2023-09-08T00:14:15;100117.31;;;11.60;74.88
76590;BME280;65471;55.908;37.880;2023-09-08T00:16:42;100124.03;;;11.57;75.07
76590;BME280;65471;55.908;37.880;2023-09-08T00:19:11;100122.38;;;11.56;74.97
76590;BME280;65471;55.908;37.880;2023-09-08T00:21:38;100119.69;;;11.56;74.88
76590;BME280;65471;55.908;37.880;2023-09-08T00:24:05;100116.13;;;11.55;75.13
76590;BME280;65471;55.908;37.880;2023-09-08T00:26:32;100116.59;;;11.52;75.02
76590;BME280;65471;55.908;37.880;2023-09-08T00:28:59;100118.47;;;11.52;75.36
76590;BME280;65471;55.908;37.880;2023-09-08T00:31:25;100112.03;;;11.53;75.13
76590;BME280;65471;55.908;37.880;2023-09-08T00:33:52;100113.06;;;11.52;75.21
76590;BME280;65471;55.908;37.880;2023-09-08T00:36:19;100110.81;;;11.49;75.29
76590;BME280;65471;55.908;37.880;2023-09-08T00:38:46;100108.34;;;11.47;75.40
76590;BME280;65471;55.908;37.880;2023-09-08T00:41:12;100112.09;;;11.46;75.38
76590;BME280;65471;55.908;37.880;2023-09-08T00:43:39;100113.97;;;11.46;75.48
76590;BME280;65471;55.908;37.880;2023-09-08T00:46:06;100110.44;;;11.45;75.57
76590;BME280;65471;55.908;37.880;2023-09-08T00:48:33;100108.19;;;11.42;75.69
76590;BME280;65471;55.908;37.880;2023-09-08T00:51:02;100107.97;;;11.44;75.41
76590;BME280;65471;55.908;37.880;2023-09-08T00:53:29;100109.00;;;11.43;75.50
76590;BME280;65471;55.908;37.880;2023-09-08T00:55:55;100111.38;;;11.39;75.62
76590;BME280;65471;55.908;37.880;2023-09-08T00:58:23;100114.06;;;11.39;75.70
76590;BME280;65471;55.908;37.880;2023-09-08T01:00:49;100107.59;;;11.40;75.64
76590;BME280;65471;55.908;37.880;2023-09-08T01:03:16;100106.41;;;11.36;75.41
76590;BME280;65471;55.908;37.880;2023-09-08T01:05:46;100108.03;;;11.37;75.39
76590;BME280;65471;55.908;37.880;2023-09-08T01:08:13;100101.81;;;11.36;75.30
76590;BME280;65471;55.908;37.880;2023-09-08T01:10:40;100099.69;;;11.38;75.77
76590;BME280;65471;55.908;37.880;2023-09-08T01:13:08;100097.84;;;11.39;75.90
76590;BME280;65471;55.908;37.880;2023-09-08T01:15:35;100100.78;;;11.37;75.56
76590;BME280;65471;55.908;37.880;2023-09-08T01:18:02;100093.69;;;11.36;75.76
76590;BME280;65471;55.908;37.880;2023-09-08T01:21:18;100100.16;;;11.35;76.02
76590;BME280;65471;55.908;37.880;2023-09-08T01:25:52;100087.31;;;11.31;75.85
76590;BME280;65471;55.908;37.880;2023-09-08T01:28:21;100082.38;;;11.28;76.04
76590;BME280;65471;55.908;37.880;2023-09-08T01:30:50;100090.72;;;11.26;76.27
76590;BME280;65471;55.908;37.880;2023-09-08T01:33:18;100085.06;;;11.28;76.41
76590;BME280;65471;55.908;37.880;2023-09-08T01:35:45;100084.03;;;11.29;76.27
76590;BME280;65471;55.908;37.880;2023-09-08T01:38:11;100096.47;;;11.30;76.16
76590;BME280;65471;55.908;37.880;2023-09-08T01:40:38;100086.72;;;11.29;76.16
76590;BME280;65471;55.908;37.880;2023-09-08T01:43:05;100073.41;;;11.27;76.01
76590;BME280;65471;55.908;37.880;2023-09-08T01:45:31;100078.81;;;11.27;76.10
76590;BME280;65471;55.908;37.880;2023-09-08T01:47:58;100070.56;;;11.22;76.03
76590;BME280;65471;55.908;37.880;2023-09-08T01:50:25;100074.09;;;11.22;76.19
76590;BME280;65471;55.908;37.880;2023-09-08T01:52:52;100074.31;;;11.21;76.11
76590;BME280;65471;55.908;37.880;2023-09-08T01:55:18;100071.25;;;11.17;75.97
76590;BME280;65471;55.908;37.880;2023-09-08T01:57:46;100077.50;;;11.18;76.21
76590;BME280;65471;55.908;37.880;2023-09-08T02:00:13;100063.97;;;11.18;76.45
76590;BME280;65471;55.908;37.880;2023-09-08T02:02:40;100065.00;;;11.17;76.15
76590;BME280;65471;55.908;37.880;2023-09-08T02:05:07;100058.78;;;11.16;76.54
76590;BME280;65471;55.908;37.880;2023-09-08T02:07:35;100055.22;;;11.16;76.58
76590;BME280;65471;55.908;37.880;2023-09-08T02:10:02;100054.63;;;11.14;76.70
76590;BME280;65471;55.908;37.880;2023-09-08T02:12:30;100055.09;;;11.11;76.76
76590;BME280;65471;55.908;37.880;2023-09-08T02:14:56;100053.91;;;11.07;76.77
76590;BME280;65471;55.908;37.880;2023-09-08T02:17:23;100050.38;;;11.06;77.03
76590;BME280;65471;55.908;37.880;2023-09-08T02:19:50;100051.44;;;11.05;77.06
76590;BME280;65471;55.908;37.880;2023-09-08T02:22:17;100048.25;;;11.08;77.09
76590;BME280;65471;55.908;37.880;2023-09-08T02:24:43;100034.97;;;11.07;76.96
76590;BME280;65471;55.908;37.880;2023-09-08T02:27:10;100037.44;;;11.08;76.92
76590;BME280;65471;55.908;37.880;2023-09-08T02:29:37;100031.22;;;11.08;77.00
76590;BME280;65471;55.908;37.880;2023-09-08T02:32:03;100031.44;;;11.06;77.17
76590;BME280;65471;55.908;37.880;2023-09-08T02:34:33;100036.22;;;11.04;77.17
76590;BME280;65471;55.908;37.880;2023-09-08T02:37:00;100021.03;;;11.03;77.18
76590;BME280;65471;55.908;37.880;2023-09-08T02:39:26;100031.66;;;11.04;77.24
76590;BME280;65471;55.908;37.880;2023-09-08T02:41:54;100026.69;;;11.01;77.53
76590;BME280;65471;55.908;37.880;2023-09-08T02:44:21;100020.69;;;10.99;77.66
76590;BME280;65471;55.908;37.880;2023-09-08T02:46:51;100012.34;;;11.01;77.84
76590;BME280;65471;55.908;37.880;2023-09-08T02:49:18;100017.38;;;10.97;77.79
76590;BME280;65471;55.908;37.880;2023-09-08T02:51:45;100014.66;;;10.97;77.86
76590;BME280;65471;55.908;37.880;2023-09-08T02:54:12;100010.09;;;10.98;78.04
76590;BME280;65471;55.908;37.880;2023-09-08T02:56:38;100013.84;;;10.97;77.86
76590;BME280;65471;55.908;37.880;2023-09-08T02:59:05;100016.31;;;10.98;78.21
76590;BME280;65471;55.908;37.880;2023-09-08T03:01:32;100022.34;;;11.00;78.13
76590;BME280;65471;55.908;37.880;2023-09-08T03:03:59;100012.81;;;10.98;78.21
76590;BME280;65471;55.908;37.880;2023-09-08T03:06:25;100006.78;;;10.96;78.18
76590;BME280;65471;55.908;37.880;2023-09-08T03:08:52;100005.50;;;10.98;78.20
76590;BME280;65471;55.908;37.880;2023-09-08T03:11:19;100003.66;;;10.99;78.47
76590;BME280;65471;55.908;37.880;2023-09-08T03:13:46;99997.16;;;11.00;78.50
76590;BME280;65471;55.908;37.880;2023-09-08T03:16:12;100000.72;;;11.00;78.64
76590;BME280;65471;55.908;37.880;2023-09-08T03:18:39;100001.13;;;10.97;78.86
76590;BME280;65471;55.908;37.880;2023-09-08T03:21:06;99993.72;;;10.93;79.03
76590;BME280;65471;55.908;37.880;2023-09-08T03:23:37;99992.97;;;10.85;79.45
76590;BME280;65471;55.908;37.880;2023-09-08T03:26:03;99995.56;;;10.80;79.28
76590;BME280;65471;55.908;37.880;2023-09-08T03:28:31;99996.00;;;10.77;79.73
76590;BME280;65471;55.908;37.880;2023-09-08T03:30:58;99994.38;;;10.76;79.77
76590;BME280;65471;55.908;37.880;2023-09-08T03:33:25;99994.94;;;10.78;79.82
76590;BME280;65471;55.908;37.880;2023-09-08T03:35:52;99991.44;;;10.78;79.88
76590;BME280;65471;55.908;37.880;2023-09-08T03:38:19;99986.84;;;10.78;80.18
76590;BME280;65471;55.908;37.880;2023-09-08T03:40:45;99991.66;;;10.76;80.30
76590;BME280;65471;55.908;37.880;2023-09-08T03:43:12;99993.28;;;10.77;80.44
76590;BME280;65471;55.908;37.880;2023-09-08T03:45:39;99993.06;;;10.79;80.25
76590;BME280;65471;55.908;37.880;2023-09-08T03:48:06;99984.75;;;10.80;80.16
76590;BME280;65471;55.908;37.880;2023-09-08T03:50:33;99980.38;;;10.79;80.53
76590;BME280;65471;55.908;37.880;2023-09-08T03:53:00;99971.41;;;10.79;80.62
76590;BME280;65471;55.908;37.880;2023-09-08T03:55:27;99975.78;;;10.80;80.54
76590;BME280;65471;55.908;37.880;2023-09-08T03:57:54;99972.25;;;10.79;80.56
76590;BME280;65471;55.908;37.880;2023-09-08T04:00:20;99969.34;;;10.81;80.37
76590;BME280;65471;55.908;37.880;2023-09-08T04:02:49;99972.38;;;10.84;80.28
76590;BME280;65471;55.908;37.880;2023-09-08T04:05:16;99968.41;;;10.87;80.21
76590;BME280;65471;55.908;37.880;2023-09-08T04:07:43;99967.34;;;10.88;80.15
76590;BME280;65471;55.908;37.880;2023-09-08T04:10:10;99967.50;;;10.93;80.06
76590;BME280;65471;55.908;37.880;2023-09-08T04:12:37;99969.75;;;10.96;79.91
76590;BME280;65471;55.908;37.880;2023-09-08T04:15:03;99969.53;;;10.98;79.77
76590;BME280;65471;55.908;37.880;2023-09-08T04:17:30;99976.94;;;11.02;79.23
76590;BME280;65471;55.908;37.880;2023-09-08T04:19:57;99970.00;;;11.07;79.26
76590;BME280;65471;55.908;37.880;2023-09-08T04:22:24;99972.25;;;11.10;78.91
76590;BME280;65471;55.908;37.880;2023-09-08T04:24:50;99969.69;;;11.15;78.85
76590;BME280;65471;55.908;37.880;2023-09-08T04:27:17;99971.47;;;11.21;78.86
76590;BME280;65471;55.908;37.880;2023-09-08T04:29:44;99967.00;;;11.27;78.56
76590;BME280;65471;55.908;37.880;2023-09-08T04:32:11;99956.19;;;11.27;78.72
76590;BME280;65471;55.908;37.880;2023-09-08T04:34:38;99956.19;;;11.27;78.60
76590;BME280;65471;55.908;37.880;2023-09-08T04:37:05;99954.44;;;11.32;78.54
76590;BME280;65471;55.908;37.880;2023-09-08T04:39:32;99953.63;;;11.44;78.40
76590;BME280;65471;55.908;37.880;2023-09-08T04:41:59;99959.19;;;11.49;77.94
76590;BME280;65471;55.908;37.880;2023-09-08T04:44:26;99945.50;;;11.44;77.74
76590;BME280;65471;55.908;37.880;2023-09-08T04:46:53;99944.94;;;11.42;77.78
76590;BME280;65471;55.908;37.880;2023-09-08T04:49:20;99933.50;;;11.39;77.69
76590;BME280;65471;55.908;37.880;2023-09-08T04:51:47;99934.31;;;11.40;77.60
76590;BME280;65471;55.908;37.880;2023-09-08T04:54:13;99939.97;;;11.38;77.74
76590;BME280;65471;55.908;37.880;2023-09-08T04:56:40;99937.72;;;11.35;77.55
76590;BME280;65471;55.908;37.880;2023-09-08T04:59:07;99930.69;;;11.34;77.54
76590;BME280;65471;55.908;37.880;2023-09-08T05:01:34;99931.97;;;11.32;77.61
76590;BME280;65471;55.908;37.880;2023-09-08T05:04:03;99932.19;;;11.30;77.61
76590;BME280;65471;55.908;37.880;2023-09-08T05:06:31;99914.88;;;11.31;77.31
76590;BME280;65471;55.908;37.880;2023-09-08T05:08:58;99925.25;;;11.34;77.27
76590;BME280;65471;55.908;37.880;2023-09-08T05:11:26;99928.91;;;11.40;76.95
76590;BME280;65471;55.908;37.880;2023-09-08T05:13:53;99919.63;;;11.48;76.56
76590;BME280;65471;55.908;37.880;2023-09-08T05:16:20;99918.19;;;11.57;76.23
76590;BME280;65471;55.908;37.880;2023-09-08T05:19:05;99913.72;;;11.63;75.60
76590;BME280;65471;55.908;37.880;2023-09-08T05:21:33;99912.19;;;11.67;75.63
76590;BME280;65471;55.908;37.880;2023-09-08T05:24:00;99901.25;;;11.73;75.51
76590;BME280;65471;55.908;37.880;2023-09-08T05:26:27;99908.44;;;11.80;74.97
76590;BME280;65471;55.908;37.880;2023-09-08T05:28:54;99904.44;;;11.82;74.88
76590;BME280;65471;55.908;37.880;2023-09-08T05:31:20;99896.91;;;11.84;74.78
76590;BME280;65471;55.908;37.880;2023-09-08T05:33:47;99892.63;;;11.88;74.61
76590;BME280;65471;55.908;37.880;2023-09-08T05:36:14;99898.81;;;11.96;74.56
76590;BME280;65471;55.908;37.880;2023-09-08T05:38:41;99900.19;;;11.98;74.12
76590;BME280;65471;55.908;37.880;2023-09-08T05:41:08;99896.69;;;11.98;74.01
76590;BME280;65471;55.908;37.880;2023-09-08T05:43:34;99899.13;;;11.99;73.91
76590;BME280;65471;55.908;37.880;2023-09-08T05:46:01;99899.03;;;11.94;73.64
76590;BME280;65471;55.908;37.880;2023-09-08T05:48:28;99891.56;;;11.89;74.03
76590;BME280;65471;55.908;37.880;2023-09-08T05:50:55;99888.06;;;11.89;74.04
76590;BME280;65471;55.908;37.880;2023-09-08T05:53:22;99875.69;;;11.93;73.87
76590;BME280;65471;55.908;37.880;2023-09-08T05:55:48;99876.16;;;12.02;73.31
76590;BME280;65471;55.908;37.880;2023-09-08T05:58:15;99875.69;;;12.05;73.53
76590;BME280;65471;55.908;37.880;2023-09-08T06:00:42;99869.66;;;12.15;72.88
76590;BME280;65471;55.908;37.880;2023-09-08T06:03:09;99865.50;;;12.24;71.79
76590;BME280;65471;55.908;37.880;2023-09-08T06:05:36;99859.38;;;12.29;71.36
76590;BME280;65471;55.908;37.880;2023-09-08T06:08:02;99863.56;;;12.36;71.30
76590;BME280;65471;55.908;37.880;2023-09-08T06:10:33;99866.22;;;12.48;71.13
76590;BME280;65471;55.908;37.880;2023-09-08T06:13:00;99859.69;;;12.61;70.97
76590;BME280;65471;55.908;37.880;2023-09-08T06:15:28;99842.53;;;12.72;70.77
76590;BME280;65471;55.908;37.880;2023-09-08T06:17:55;99847.31;;;12.82;70.67
76590;BME280;65471;55.908;37.880;2023-09-08T06:20:21;99847.56;;;12.81;70.43
76590;BME280;65471;55.908;37.880;2023-09-08T06:22:48;99843.38;;;12.73;70.32
76590;BME280;65471;55.908;37.880;2023-09-08T06:25:15;99837.34;;;12.71;70.39
76590;BME280;65471;55.908;37.880;2023-09-08T06:27:42;99833.84;;;12.70;70.47
76590;BME280;65471;55.908;37.880;2023-09-08T06:30:09;99825.94;;;12.69;70.28
76590;BME280;65471;55.908;37.880;2023-09-08T06:32:36;99830.13;;;12.76;70.17
76590;BME280;65471;55.908;37.880;2023-09-08T06:35:03;99823.06;;;12.92;69.08
76590;BME280;65471;55.908;37.880;2023-09-08T06:37:34;99820.03;;;13.06;68.87
76590;BME280;65471;55.908;37.880;2023-09-08T06:40:01;99830.50;;;13.14;68.96
76590;BME280;65471;55.908;37.880;2023-09-08T06:42:28;99821.34;;;13.20;68.78
76590;BME280;65471;55.908;37.880;2023-09-08T06:44:55;99825.28;;;13.29;68.53
76590;BME280;65471;55.908;37.880;2023-09-08T06:47:22;99823.16;;;13.32;68.26
76590;BME280;65471;55.908;37.880;2023-09-08T06:49:48;99820.09;;;13.28;67.42
76590;BME280;65471;55.908;37.880;2023-09-08T06:52:16;99817.56;;;13.21;67.36
76590;BME280;65471;55.908;37.880;2023-09-08T06:54:43;99818.53;;;13.15;67.68
76590;BME280;65471;55.908;37.880;2023-09-08T06:57:12;99813.78;;;13.05;67.73
76590;BME280;65471;55.908;37.880;2023-09-08T06:59:39;99805.88;;;13.04;67.92
76590;BME280;65471;55.908;37.880;2023-09-08T07:02:06;99805.16;;;13.08;67.51
76590;BME280;65471;55.908;37.880;2023-09-08T07:04:33;99799.47;;;13.10;67.42
76590;BME280;65471;55.908;37.880;2023-09-08T07:07:02;99799.28;;;13.17;67.61
76590;BME280;65471;55.908;37.880;2023-09-08T07:09:36;99788.78;;;13.20;67.58
76590;BME280;65471;55.908;37.880;2023-09-08T07:12:04;99792.88;;;13.23;67.26
76590;BME280;65471;55.908;37.880;2023-09-08T07:14:31;99780.47;;;13.27;67.34
76590;BME280;65471;55.908;37.880;2023-09-08T07:16:58;99785.63;;;13.28;67.37
76590;BME280;65471;55.908;37.880;2023-09-08T07:19:25;99774.53;;;13.30;66.61
76590;BME280;65471;55.908;37.880;2023-09-08T07:21:52;99779.44;;;13.33;66.81
76590;BME280;65471;55.908;37.880;2023-09-08T07:24:19;99779.56;;;13.38;66.86
76590;BME280;65471;55.908;37.880;2023-09-08T07:26:46;99772.53;;;13.42;66.52
76590;BME280;65471;55.908;37.880;2023-09-08T07:29:12;99769.34;;;13.45;66.12
76590;BME280;65471;55.908;37.880;2023-09-08T07:31:39;99761.56;;;13.54;65.86
76590;BME280;65471;55.908;37.880;2023-09-08T07:34:06;99760.88;;;13.64;65.94
76590;BME280;65471;55.908;37.880;2023-09-08T07:36:33;99765.31;;;13.70;65.81
76590;BME280;65471;55.908;37.880;2023-09-08T07:39:01;99760.75;;;13.76;66.04
76590;BME280;65471;55.908;37.880;2023-09-08T07:41:27;99762.19;;;13.84;66.18
76590;BME280;65471;55.908;37.880;2023-09-08T07:43:54;99750.25;;;13.85;65.88
76590;BME280;65471;55.908;37.880;2023-09-08T07:46:24;99750.84;;;13.87;65.53
76590;BME280;65471;55.908;37.880;2023-09-08T07:48:51;99749.00;;;13.92;65.43
76590;BME280;65471;55.908;37.880;2023-09-08T07:51:17;99738.75;;;14.00;65.27
76590;BME280;65471;55.908;37.880;2023-09-08T07:53:44;99746.06;;;13.99;65.18
76590;BME280;65471;55.908;37.880;2023-09-08T07:56:11;99740.63;;;13.99;65.18
76590;BME280;65471;55.908;37.880;2023-09-08T07:58:38;99742.78;;;13.97;64.59
76590;BME280;65471;55.908;37.880;2023-09-08T08:01:06;99729.19;;;13.97;64.88
76590;BME280;65471;55.908;37.880;2023-09-08T08:03:33;99735.44;;;13.97;64.70
76590;BME280;65471;55.908;37.880;2023-09-08T08:06:02;99732.22;;;14.01;64.59
76590;BME280;65471;55.908;37.880;2023-09-08T08:08:29;99725.44;;;14.03;64.74
76590;BME280;65471;55.908;37.880;2023-09-08T08:10:55;99719.47;;;14.01;64.49
76590;BME280;65471;55.908;37.880;2023-09-08T08:13:22;99721.03;;;13.97;64.52
76590;BME280;65471;55.908;37.880;2023-09-08T08:15:49;99709.03;;;13.93;64.13
76590;BME280;65471;55.908;37.880;2023-09-08T08:18:16;99724.72;;;13.86;63.91
76590;BME280;65471;55.908;37.880;2023-09-08T08:20:43;99712.41;;;13.78;64.04
76590;BME280;65471;55.908;37.880;2023-09-08T08:23:10;99709.94;;;13.76;64.33
76590;BME280;65471;55.908;37.880;2023-09-08T08:25:37;99703.44;;;13.77;63.96
76590;BME280;65471;55.908;37.880;2023-09-08T08:28:03;99699.13;;;13.81;64.34
76590;BME280;65471;55.908;37.880;2023-09-08T08:30:30;99689.13;;;13.87;64.62
76590;BME280;65471;55.908;37.880;2023-09-08T08:32:57;99686.78;;;13.96;64.70
76590;BME280;65471;55.908;37.880;2023-09-08T08:35:24;99675.19;;;14.06;64.67
76590;BME280;65471;55.908;37.880;2023-09-08T08:37:50;99667.91;;;14.11;64.68
76590;BME280;65471;55.908;37.880;2023-09-08T08:40:17;99672.28;;;14.12;64.70
76590;BME280;65471;55.908;37.880;2023-09-08T08:42:44;99658.94;;;14.11;64.95
76590;BME280;65471;55.908;37.880;2023-09-08T08:45:11;99645.03;;;14.07;64.96
76590;BME280;65471;55.908;37.880;2023-09-08T08:47:41;99645.28;;;14.06;64.94
76590;BME280;65471;55.908;37.880;2023-09-08T08:50:08;99659.16;;;14.09;65.25
76590;BME280;65471;55.908;37.880;2023-09-08T08:52:37;99645.44;;;14.21;65.04
76590;BME280;65471;55.908;37.880;2023-09-08T08:55:04;99653.66;;;14.31;65.15
76590;BME280;65471;55.908;37.880;2023-09-08T08:57:31;99662.34;;;14.28;65.31
76590;BME280;65471;55.908;37.880;2023-09-08T08:59:59;99663.88;;;14.19;65.03
76590;BME280;65471;55.908;37.880;2023-09-08T09:02:26;99660.28;;;14.13;65.20
76590;BME280;65471;55.908;37.880;2023-09-08T09:04:54;99649.38;;;14.08;65.45
76590;BME280;65471;55.908;37.880;2023-09-08T09:07:21;99650.97;;;14.04;65.90
76590;BME280;65471;55.908;37.880;2023-09-08T09:09:48;99651.50;;;14.01;66.13
76590;BME280;65471;55.908;37.880;2023-09-08T09:12:15;99659.31;;;13.92;66.66
76590;BME280;65471;55.908;37.880;2023-09-08T09:14:45;99657.34;;;13.88;67.23
76590;BME280;65471;55.908;37.880;2023-09-08T09:17:14;99659.19;;;13.82;67.62
76590;BME280;65471;55.908;37.880;2023-09-08T09:19:41;99670.13;;;13.65;68.52
76590;BME280;65471;55.908;37.880;2023-09-08T09:22:08;99676.41;;;13.43;69.67
76590;BME280;65471;55.908;37.880;2023-09-08T09:24:39;99663.31;;;13.18;71.84
76590;BME280;65471;55.908;37.880;2023-09-08T09:27:13;99664.69;;;12.99;72.69
76590;BME280;65471;55.908;37.880;2023-09-08T09:29:44;99675.88;;;12.85;73.66
76590;BME280;65471;55.908;37.880;2023-09-08T09:32:12;99673.34;;;12.78;74.34
76590;BME280;65471;55.908;37.880;2023-09-08T09:34:52;99673.03;;;12.75;74.75
76590;BME280;65471;55.908;37.880;2023-09-08T09:37:23;99678.94;;;12.72;75.91
76590;BME280;65471;55.908;37.880;2023-09-08T09:39:50;99672.38;;;12.68;76.43
76590;BME280;65471;55.908;37.880;2023-09-08T09:42:17;99670.81;;;12.72;76.93
76590;BME280;65471;55.908;37.880;2023-09-08T09:44:44;99674.09;;;12.74;77.59
76590;BME280;65471;55.908;37.880;2023-09-08T09:47:13;99674.41;;;12.77;77.87
76590;BME280;65471;55.908;37.880;2023-09-08T09:49:43;99672.91;;;12.87;77.52
76590;BME280;65471;55.908;37.880;2023-09-08T09:52:13;99665.91;;;12.91;77.18
76590;BME280;65471;55.908;37.880;2023-09-08T09:54:41;99667.66;;;12.97;77.08
76590;BME280;65471;55.908;37.880;2023-09-08T09:57:12;99663.41;;;13.06;76.97
76590;BME280;65471;55.908;37.880;2023-09-08T09:59:42;99665.19;;;13.18;76.72
76590;BME280;65471;55.908;37.880;2023-09-08T10:02:13;99652.50;;;13.23;76.60
76590;BME280;65471;55.908;37.880;2023-09-08T10:04:40;99665.75;;;13.37;76.45
76590;BME280;65471;55.908;37.880;2023-09-08T10:07:08;99657.13;;;13.67;76.58
76590;BME280;65471;55.908;37.880;2023-09-08T10:09:37;99654.94;;;13.91;75.99
76590;BME280;65471;55.908;37.880;2023-09-08T10:12:04;99658.28;;;14.04;75.73
76590;BME280;65471;55.908;37.880;2023-09-08T10:14:32;99645.84;;;14.08;74.83
76590;BME280;65471;55.908;37.880;2023-09-08T10:17:02;99656.41;;;14.04;74.21
76590;BME280;65471;55.908;37.880;2023-09-08T10:19:30;99653.63;;;13.99;74.43
76590;BME280;65471;55.908;37.880;2023-09-08T10:22:00;99652.75;;;13.88;74.22
76590;BME280;65471;55.908;37.880;2023-09-08T10:24:27;99655.59;;;13.76;74.38
76590;BME280;65471;55.908;37.880;2023-09-08T10:26:58;99655.56;;;13.71;74.54
76590;BME280;65471;55.908;37.880;2023-09-08T10:29:27;99650.56;;;13.63;74.41
76590;BME280;65471;55.908;37.880;2023-09-08T10:31:54;99652.41;;;13.57;74.29
76590;BME280;65471;55.908;37.880;2023-09-08T10:34:22;99663.19;;;13.52;74.46
76590;BME280;65471;55.908;37.880;2023-09-08T10:36:49;99663.72;;;13.49;74.54
76590;BME280;65471;55.908;37.880;2023-09-08T10:39:32;99665.25;;;13.40;74.95
76590;BME280;65471;55.908;37.880;2023-09-08T10:44:43;99702.94;;;12.97;76.91
76590;BME280;65471;55.908;37.880;2023-09-08T10:47:10;99681.50;;;12.78;78.53
76590;BME280;65471;55.908;37.880;2023-09-08T10:49:38;99683.72;;;12.65;78.92
76590;BME280;65471;55.908;37.880;2023-09-08T10:52:08;99683.63;;;12.59;79.49
76590;BME280;65471;55.908;37.880;2023-09-08T10:54:41;99675.25;;;12.61;79.52
76590;BME280;65471;55.908;37.880;2023-09-08T10:57:18;99685.63;;;12.64;79.69
76590;BME280;65471;55.908;37.880;2023-09-08T10:59:58;99686.19;;;12.66;79.79
76590;BME280;65471;55.908;37.880;2023-09-08T11:04:58;99692.25;;;12.73;79.77
76590;BME280;65471;55.908;37.880;2023-09-08T11:07:25;99695.22;;;12.72;79.91
76590;BME280;65471;55.908;37.880;2023-09-08T11:09:51;99698.84;;;12.77;80.03
76590;BME280;65471;55.908;37.880;2023-09-08T11:12:18;99681.31;;;12.85;80.08
76590;BME280;65471;55.908;37.880;2023-09-08T11:14:45;99690.69;;;12.94;79.75
76590;BME280;65471;55.908;37.880;2023-09-08T11:17:11;99691.72;;;13.10;79.69
76590;BME280;65471;55.908;37.880;2023-09-08T11:19:46;99687.56;;;13.25;79.70
76590;BME280;65471;55.908;37.880;2023-09-08T11:22:14;99678.16;;;13.33;79.54
76590;BME280;65471;55.908;37.880;2023-09-08T11:24:41;99686.78;;;13.29;79.09
76590;BME280;65471;55.908;37.880;2023-09-08T11:27:09;99685.97;;;13.29;78.71
76590;BME280;65471;55.908;37.880;2023-09-08T11:29:36;99690.44;;;13.35;79.03
76590;BME280;65471;55.908;37.880;2023-09-08T11:32:02;99688.34;;;13.42;78.71
76590;BME280;65471;55.908;37.880;2023-09-08T11:34:35;99693.34;;;13.51;78.14
76590;BME280;65471;55.908;37.880;2023-09-08T11:37:11;99685.56;;;13.59;77.47
76590;BME280;65471;55.908;37.880;2023-09-08T11:39:39;99683.47;;;13.67;76.40
76590;BME280;65471;55.908;37.880;2023-09-08T11:42:07;99682.41;;;13.68;75.75
76590;BME280;65471;55.908;37.880;2023-09-08T11:44:37;99681.84;;;13.66;73.41
76590;BME280;65471;55.908;37.880;2023-09-08T11:47:04;99678.69;;;13.74;73.30
76590;BME280;65471;55.908;37.880;2023-09-08T11:49:41;99682.91;;;13.87;72.79
76590;BME280;65471;55.908;37.880;2023-09-08T11:52:10;99683.00;;;13.97;72.15
76590;BME280;65471;55.908;37.880;2023-09-08T11:54:37;99678.69;;;14.01;71.74
76590;BME280;65471;55.908;37.880;2023-09-08T11:57:21;99680.88;;;14.04;71.27
76590;BME280;65471;55.908;37.880;2023-09-08T11:59:48;99689.56;;;14.01;71.10
76590;BME280;65471;55.908;37.880;2023-09-08T12:02:15;99679.59;;;13.85;70.71
76590;BME280;65471;55.908;37.880;2023-09-08T12:04:41;99687.28;;;13.66;70.27
76590;BME280;65471;55.908;37.880;2023-09-08T12:07:12;99695.31;;;13.55;69.76
76590;BME280;65471;55.908;37.880;2023-09-08T12:09:41;99696.13;;;13.56;69.71
76590;BME280;65471;55.908;37.880;2023-09-08T12:12:11;99697.78;;;13.57;68.82
76590;BME280;65471;55.908;37.880;2023-09-08T12:14:41;99703.75;;;13.59;68.37
76590;BME280;65471;55.908;37.880;2023-09-08T12:17:13;99710.34;;;13.63;68.10
76590;BME280;65471;55.908;37.880;2023-09-08T12:19:43;99714.44;;;13.66;67.93
76590;BME280;65471;55.908;37.880;2023-09-08T12:22:10;99720.69;;;13.66;67.82
76590;BME280;65471;55.908;37.880;2023-09-08T12:27:22;99716.63;;;13.46;67.19
76590;BME280;65471;55.908;37.880;2023-09-08T12:32:19;99720.06;;;13.37;67.25
76590;BME280;65471;55.908;37.880;2023-09-08T12:34:46;99719.72;;;13.33;67.15
76590;BME280;65471;55.908;37.880;2023-09-08T12:37:13;99709.84;;;13.27;66.77
76590;BME280;65471;55.908;37.880;2023-09-08T12:39:39;99719.56;;;13.23;67.00
76590;BME280;65471;55.908;37.880;2023-09-08T12:42:06;99723.09;;;13.23;66.58
76590;BME280;65471;55.908;37.880;2023-09-08T12:44:33;99720.13;;;13.25;66.48
76590;BME280;65471;55.908;37.880;2023-09-08T12:47:00;99725.81;;;13.23;66.53
76590;BME280;65471;55.908;37.880;2023-09-08T12:49:26;99721.16;;;13.19;66.80
76590;BME280;65471;55.908;37.880;2023-09-08T12:51:53;99722.47;;;13.16;67.03
76590;BME280;65471;55.908;37.880;2023-09-08T12:54:20;99723.47;;;13.10;66.75
76590;BME280;65471;55.908;37.880;2023-09-08T12:56:46;99729.31;;;13.02;67.04
76590;BME280;65471;55.908;37.880;2023-09-08T12:59:13;99721.84;;;12.92;67.12
76590;BME280;65471;55.908;37.880;2023-09-08T13:01:40;99724.97;;;12.84;67.39
76590;BME280;65471;55.908;37.880;2023-09-08T13:04:07;99724.16;;;12.83;67.49